LHX5RA EGBB-EDDM
Flight info
| Callsign | LHX5RA |
|---|---|
| Flight time | 1h 33m |
| Altitude | 37000 |
| Route | DTY P166 BANTO P155 SIVDA P137 REDFA DCT TACHA DCT DODEN/N0450F330 DCT TABUM DCT BOMBI T104 HAREM/N0436F270 T104 ROKIL ROKIL1A |
| Aircraft | A320/M-SDE3FGHIRWY/LB1 |
Departure
| Time | 2026-04-30 19:24 |
|---|---|
| Airport | Birmingham Airport (EGBB) |
Arrival
| Time | 2026-04-30 20:57 |
|---|---|
| Airport | Munich Airport (EDDM) |
| Time | Latitude | Longitude | Altitude | Speed | Heading |
|---|---|---|---|---|---|
| 2026-04-30 19:17 | 52.45372 | -1.73833 | 326 ft | 0 kts | 235° |
| 2026-04-30 19:18 | 52.45372 | -1.73834 | 326 ft | 1 kts | 235° |
| 2026-04-30 19:18 | 52.45340 | -1.73910 | 327 ft | 11 kts | 235° |
| 2026-04-30 19:18 | 52.45310 | -1.74024 | 327 ft | 10 kts | 270° |
| 2026-04-30 19:19 | 52.45349 | -1.74097 | 327 ft | 8 kts | 304° |
| 2026-04-30 19:19 | 52.45362 | -1.74202 | 327 ft | 13 kts | 291° |
| 2026-04-30 19:19 | 52.45475 | -1.74562 | 322 ft | 18 kts | 307° |
| 2026-04-30 19:20 | 52.45587 | -1.74696 | 325 ft | 23 kts | 326° |
| 2026-04-30 19:20 | 52.45734 | -1.74859 | 323 ft | 27 kts | 325° |
| 2026-04-30 19:20 | 52.46028 | -1.75187 | 320 ft | 25 kts | 325° |
| 2026-04-30 19:21 | 52.46166 | -1.75341 | 319 ft | 23 kts | 326° |
| 2026-04-30 19:21 | 52.46418 | -1.75620 | 316 ft | 20 kts | 327° |
| 2026-04-30 19:22 | 52.46623 | -1.75868 | 314 ft | 13 kts | 296° |
| 2026-04-30 19:22 | 52.46541 | -1.76081 | 316 ft | 3 kts | 170° |
| 2026-04-30 19:23 | 52.46287 | -1.75802 | 318 ft | 69 kts | 146° |
| 2026-04-30 19:24 | 52.44887 | -1.74246 | 521 ft | 152 kts | 144° |
| 2026-04-30 19:24 | 52.44022 | -1.73299 | 1190 ft | 152 kts | 144° |
| 2026-04-30 19:24 | 52.42281 | -1.71313 | 2374 ft | 161 kts | 145° |
| 2026-04-30 19:25 | 52.38570 | -1.69083 | 3685 ft | 211 kts | 164° |
| 2026-04-30 19:26 | 52.35941 | -1.66786 | 5210 ft | 222 kts | 136° |
| 2026-04-30 19:26 | 52.34753 | -1.62019 | 6709 ft | 236 kts | 103° |
| 2026-04-30 19:26 | 52.34428 | -1.59336 | 7149 ft | 255 kts | 105° |
| 2026-04-30 19:27 | 52.33658 | -1.53395 | 8487 ft | 273 kts | 105° |
| 2026-04-30 19:27 | 52.32863 | -1.47246 | 10117 ft | 279 kts | 105° |
| 2026-04-30 19:28 | 52.32456 | -1.44100 | 10690 ft | 291 kts | 105° |
| 2026-04-30 19:28 | 52.31546 | -1.37113 | 11098 ft | 336 kts | 105° |
| 2026-04-30 19:29 | 52.30564 | -1.29501 | 12237 ft | 350 kts | 105° |
| 2026-04-30 19:29 | 52.30061 | -1.25596 | 12934 ft | 353 kts | 105° |
| 2026-04-30 19:30 | 52.28505 | -1.13694 | 14889 ft | 362 kts | 105° |
| 2026-04-30 19:30 | 52.27432 | -1.05591 | 16066 ft | 368 kts | 105° |
| 2026-04-30 19:31 | 52.26336 | -0.97357 | 17196 ft | 375 kts | 105° |
| 2026-04-30 19:31 | 52.25786 | -0.93237 | 17698 ft | 379 kts | 105° |
| 2026-04-30 19:31 | 52.25194 | -0.84610 | 18712 ft | 391 kts | 89° |
| 2026-04-30 19:32 | 52.25645 | -0.80200 | 19187 ft | 398 kts | 78° |
| 2026-04-30 19:32 | 52.26435 | -0.75847 | 19673 ft | 401 kts | 77° |
| 2026-04-30 19:32 | 52.27230 | -0.71473 | 20152 ft | 404 kts | 77° |
| 2026-04-30 19:32 | 52.28023 | -0.67060 | 20629 ft | 406 kts | 77° |
| 2026-04-30 19:33 | 52.28813 | -0.62621 | 21060 ft | 409 kts | 77° |
| 2026-04-30 19:33 | 52.29606 | -0.58148 | 21514 ft | 411 kts | 77° |
| 2026-04-30 19:33 | 52.30394 | -0.53704 | 21950 ft | 414 kts | 78° |
| 2026-04-30 19:33 | 52.31193 | -0.49174 | 22399 ft | 416 kts | 78° |
| 2026-04-30 19:34 | 52.31999 | -0.44613 | 22845 ft | 419 kts | 78° |
| 2026-04-30 19:34 | 52.32811 | -0.40025 | 23281 ft | 421 kts | 78° |
| 2026-04-30 19:34 | 52.34443 | -0.30777 | 24062 ft | 426 kts | 78° |
| 2026-04-30 19:35 | 52.35242 | -0.26105 | 24407 ft | 426 kts | 81° |
| 2026-04-30 19:35 | 52.35696 | -0.21335 | 24744 ft | 424 kts | 90° |
| 2026-04-30 19:35 | 52.35736 | -0.16591 | 25069 ft | 423 kts | 94° |
| 2026-04-30 19:35 | 52.35704 | -0.11770 | 25402 ft | 425 kts | 94° |
| 2026-04-30 19:36 | 52.35668 | -0.06922 | 25740 ft | 427 kts | 94° |
| 2026-04-30 19:36 | 52.35631 | -0.02051 | 26073 ft | 429 kts | 95° |
| 2026-04-30 19:36 | 52.35192 | 0.07678 | 26694 ft | 430 kts | 101° |
| 2026-04-30 19:37 | 52.34764 | 0.12526 | 27008 ft | 432 kts | 101° |
| 2026-04-30 19:37 | 52.34333 | 0.17395 | 27316 ft | 434 kts | 101° |
| 2026-04-30 19:37 | 52.33904 | 0.22215 | 27615 ft | 435 kts | 101° |
| 2026-04-30 19:37 | 52.33465 | 0.27122 | 27906 ft | 437 kts | 101° |
| 2026-04-30 19:38 | 52.33023 | 0.32052 | 28187 ft | 439 kts | 102° |
| 2026-04-30 19:38 | 52.32578 | 0.36994 | 28472 ft | 441 kts | 102° |
| 2026-04-30 19:38 | 52.32129 | 0.41959 | 28749 ft | 442 kts | 102° |
| 2026-04-30 19:38 | 52.31675 | 0.46942 | 29045 ft | 444 kts | 102° |
| 2026-04-30 19:39 | 52.31217 | 0.51936 | 29341 ft | 444 kts | 101° |
| 2026-04-30 19:39 | 52.30760 | 0.56923 | 29728 ft | 443 kts | 101° |
| 2026-04-30 19:39 | 52.30304 | 0.61901 | 30121 ft | 443 kts | 101° |
| 2026-04-30 19:39 | 52.29854 | 0.66802 | 30478 ft | 442 kts | 102° |
| 2026-04-30 19:40 | 52.29395 | 0.71755 | 30809 ft | 440 kts | 102° |
| 2026-04-30 19:40 | 52.28933 | 0.76692 | 31144 ft | 439 kts | 102° |
| 2026-04-30 19:40 | 52.28469 | 0.81617 | 31481 ft | 438 kts | 102° |
| 2026-04-30 19:40 | 52.28005 | 0.86534 | 31823 ft | 437 kts | 102° |
| 2026-04-30 19:41 | 52.27542 | 0.91428 | 32199 ft | 435 kts | 102° |
| 2026-04-30 19:41 | 52.27079 | 0.96303 | 32556 ft | 434 kts | 102° |
| 2026-04-30 19:41 | 52.26612 | 1.01159 | 32882 ft | 432 kts | 102° |
| 2026-04-30 19:41 | 52.26141 | 1.06002 | 33210 ft | 431 kts | 102° |
| 2026-04-30 19:42 | 52.25674 | 1.10764 | 33532 ft | 430 kts | 102° |
| 2026-04-30 19:42 | 52.25203 | 1.15581 | 33857 ft | 430 kts | 102° |
| 2026-04-30 19:42 | 52.24735 | 1.20392 | 34184 ft | 429 kts | 102° |
| 2026-04-30 19:42 | 52.24266 | 1.25191 | 34469 ft | 428 kts | 102° |
| 2026-04-30 19:43 | 52.23797 | 1.29986 | 34723 ft | 428 kts | 102° |
| 2026-04-30 19:43 | 52.23328 | 1.34783 | 34962 ft | 428 kts | 102° |
| 2026-04-30 19:43 | 52.22856 | 1.39575 | 35194 ft | 428 kts | 102° |
| 2026-04-30 19:44 | 52.21898 | 1.49173 | 35625 ft | 429 kts | 101° |
| 2026-04-30 19:44 | 52.21421 | 1.53913 | 35817 ft | 430 kts | 101° |
| 2026-04-30 19:44 | 52.20938 | 1.58720 | 36020 ft | 430 kts | 101° |
| 2026-04-30 19:44 | 52.20452 | 1.63528 | 36221 ft | 430 kts | 102° |
| 2026-04-30 19:45 | 52.19963 | 1.68340 | 36416 ft | 430 kts | 102° |
| 2026-04-30 19:45 | 52.19473 | 1.73151 | 36609 ft | 431 kts | 102° |
| 2026-04-30 19:45 | 52.18978 | 1.77965 | 36796 ft | 431 kts | 102° |
| 2026-04-30 19:45 | 52.18481 | 1.82775 | 36980 ft | 431 kts | 102° |
| 2026-04-30 19:46 | 52.17980 | 1.87591 | 37174 ft | 431 kts | 102° |
| 2026-04-30 19:46 | 52.16970 | 1.97248 | 37255 ft | 434 kts | 102° |
| 2026-04-30 19:47 | 52.15958 | 2.06867 | 37267 ft | 434 kts | 102° |
| 2026-04-30 19:47 | 52.14932 | 2.16555 | 37265 ft | 434 kts | 102° |
| 2026-04-30 19:48 | 52.13901 | 2.26242 | 37273 ft | 434 kts | 102° |
| 2026-04-30 19:48 | 52.12860 | 2.35920 | 37259 ft | 434 kts | 102° |
| 2026-04-30 19:49 | 52.11976 | 2.45570 | 37271 ft | 436 kts | 94° |
| 2026-04-30 19:49 | 52.12711 | 2.55366 | 37266 ft | 441 kts | 75° |
| 2026-04-30 19:49 | 52.13632 | 2.60128 | 37265 ft | 441 kts | 75° |
| 2026-04-30 19:50 | 52.15454 | 2.69656 | 37266 ft | 441 kts | 75° |
| 2026-04-30 19:50 | 52.17253 | 2.79209 | 37276 ft | 441 kts | 75° |
| 2026-04-30 19:51 | 52.19034 | 2.88709 | 37285 ft | 441 kts | 75° |
| 2026-04-30 19:51 | 52.20826 | 2.98276 | 37286 ft | 441 kts | 75° |
| 2026-04-30 19:52 | 52.22605 | 3.07847 | 37306 ft | 441 kts | 75° |
| 2026-04-30 19:52 | 52.24167 | 3.17482 | 37296 ft | 437 kts | 85° |
| 2026-04-30 19:53 | 52.23962 | 3.27213 | 37291 ft | 431 kts | 104° |
| 2026-04-30 19:53 | 52.21850 | 3.36280 | 37285 ft | 428 kts | 118° |
| 2026-04-30 19:54 | 52.19150 | 3.44946 | 37275 ft | 429 kts | 118° |
| 2026-04-30 19:54 | 52.16445 | 3.53608 | 37280 ft | 429 kts | 117° |
| 2026-04-30 19:55 | 52.13735 | 3.62277 | 37287 ft | 430 kts | 117° |
| 2026-04-30 19:55 | 52.11037 | 3.70876 | 37292 ft | 429 kts | 118° |
| 2026-04-30 19:56 | 52.08312 | 3.79523 | 37296 ft | 430 kts | 117° |
| 2026-04-30 19:56 | 52.05583 | 3.88168 | 37314 ft | 430 kts | 117° |
| 2026-04-30 19:57 | 52.02844 | 3.96803 | 37302 ft | 430 kts | 117° |
| 2026-04-30 19:57 | 52.00113 | 4.05369 | 37315 ft | 430 kts | 117° |
| 2026-04-30 19:58 | 51.97356 | 4.13972 | 37300 ft | 430 kts | 117° |
| 2026-04-30 19:58 | 51.94594 | 4.22580 | 37292 ft | 430 kts | 117° |
| 2026-04-30 19:59 | 51.91825 | 4.31189 | 37296 ft | 431 kts | 117° |
| 2026-04-30 20:00 | 51.87676 | 4.44034 | 37296 ft | 431 kts | 117° |
| 2026-04-30 20:00 | 51.84888 | 4.52624 | 37298 ft | 431 kts | 117° |
| 2026-04-30 20:01 | 51.80696 | 4.65502 | 37317 ft | 431 kts | 118° |
| 2026-04-30 20:01 | 51.77886 | 4.74063 | 37308 ft | 432 kts | 118° |
| 2026-04-30 20:02 | 51.73679 | 4.86841 | 37305 ft | 432 kts | 117° |
| 2026-04-30 20:03 | 51.69442 | 4.99653 | 37304 ft | 432 kts | 118° |
| 2026-04-30 20:03 | 51.66608 | 5.08191 | 37318 ft | 432 kts | 118° |
| 2026-04-30 20:04 | 51.63772 | 5.16712 | 37318 ft | 432 kts | 118° |
| 2026-04-30 20:05 | 51.59521 | 5.29418 | 37306 ft | 432 kts | 118° |
| 2026-04-30 20:05 | 51.55232 | 5.42167 | 37304 ft | 432 kts | 117° |
| 2026-04-30 20:06 | 51.52368 | 5.50663 | 37304 ft | 433 kts | 118° |
| 2026-04-30 20:06 | 51.49511 | 5.59092 | 37300 ft | 433 kts | 118° |
| 2026-04-30 20:07 | 51.46623 | 5.67572 | 37335 ft | 433 kts | 118° |
| 2026-04-30 20:08 | 51.42285 | 5.80275 | 37344 ft | 433 kts | 117° |
| 2026-04-30 20:08 | 51.39389 | 5.88730 | 37350 ft | 433 kts | 118° |
| 2026-04-30 20:09 | 51.36980 | 5.95744 | 37356 ft | 433 kts | 118° |
| 2026-04-30 20:09 | 51.32143 | 6.09740 | 37345 ft | 432 kts | 118° |
| 2026-04-30 20:10 | 51.28261 | 6.20920 | 37356 ft | 432 kts | 118° |
| 2026-04-30 20:11 | 51.23870 | 6.33513 | 37360 ft | 433 kts | 118° |
| 2026-04-30 20:11 | 51.20453 | 6.43266 | 37358 ft | 433 kts | 118° |
| 2026-04-30 20:12 | 51.16531 | 6.54420 | 37351 ft | 434 kts | 118° |
| 2026-04-30 20:13 | 51.13570 | 6.62788 | 37359 ft | 433 kts | 118° |
| 2026-04-30 20:13 | 51.10604 | 6.71145 | 37358 ft | 434 kts | 117° |
| 2026-04-30 20:14 | 51.07638 | 6.79497 | 37349 ft | 434 kts | 117° |
| 2026-04-30 20:14 | 51.04686 | 6.87792 | 37355 ft | 434 kts | 117° |
| 2026-04-30 20:15 | 51.01707 | 6.96140 | 37356 ft | 434 kts | 118° |
| 2026-04-30 20:15 | 50.98715 | 7.04471 | 37364 ft | 434 kts | 118° |
| 2026-04-30 20:16 | 50.95713 | 7.12791 | 37367 ft | 435 kts | 117° |
| 2026-04-30 20:16 | 50.92729 | 7.21053 | 37366 ft | 435 kts | 117° |
| 2026-04-30 20:17 | 50.89715 | 7.29360 | 37361 ft | 435 kts | 118° |
| 2026-04-30 20:17 | 50.86695 | 7.37660 | 37368 ft | 435 kts | 117° |
| 2026-04-30 20:18 | 50.83672 | 7.45954 | 37363 ft | 435 kts | 118° |
| 2026-04-30 20:18 | 50.80660 | 7.54176 | 37379 ft | 435 kts | 117° |
| 2026-04-30 20:19 | 50.77620 | 7.62459 | 37379 ft | 436 kts | 117° |
| 2026-04-30 20:19 | 50.74575 | 7.70736 | 37387 ft | 436 kts | 117° |
| 2026-04-30 20:20 | 50.71524 | 7.79001 | 37385 ft | 436 kts | 117° |
| 2026-04-30 20:20 | 50.68460 | 7.87257 | 37389 ft | 436 kts | 118° |
| 2026-04-30 20:21 | 50.65410 | 7.95449 | 37390 ft | 436 kts | 117° |
| 2026-04-30 20:21 | 50.62326 | 8.03684 | 37385 ft | 437 kts | 119° |
| 2026-04-30 20:22 | 50.58339 | 8.10958 | 37377 ft | 444 kts | 137° |
| 2026-04-30 20:22 | 50.53189 | 8.16407 | 37376 ft | 447 kts | 144° |
| 2026-04-30 20:23 | 50.47978 | 8.21638 | 37380 ft | 448 kts | 144° |
| 2026-04-30 20:23 | 50.42729 | 8.26914 | 37382 ft | 448 kts | 144° |
| 2026-04-30 20:24 | 50.37478 | 8.32176 | 37377 ft | 448 kts | 144° |
| 2026-04-30 20:24 | 50.32216 | 8.37412 | 37387 ft | 448 kts | 143° |
| 2026-04-30 20:25 | 50.25333 | 8.46881 | 37368 ft | 440 kts | 128° |
| 2026-04-30 20:26 | 50.19102 | 8.57445 | 37358 ft | 441 kts | 129° |
| 2026-04-30 20:26 | 50.12850 | 8.67978 | 37363 ft | 441 kts | 129° |
| 2026-04-30 20:27 | 50.04477 | 8.81889 | 37368 ft | 443 kts | 131° |
| 2026-04-30 20:28 | 49.95314 | 8.94750 | 37371 ft | 444 kts | 134° |
| 2026-04-30 20:30 | 49.83876 | 9.10730 | 37374 ft | 444 kts | 133° |
| 2026-04-30 20:31 | 49.70128 | 9.29926 | 37370 ft | 445 kts | 134° |
| 2026-04-30 20:32 | 49.58997 | 9.46418 | 37369 ft | 441 kts | 127° |
| 2026-04-30 20:33 | 49.52923 | 9.57097 | 37363 ft | 442 kts | 126° |
| 2026-04-30 20:34 | 49.46848 | 9.67704 | 37355 ft | 443 kts | 126° |
| 2026-04-30 20:35 | 49.40714 | 9.78374 | 37229 ft | 445 kts | 126° |
| 2026-04-30 20:35 | 49.38663 | 9.81933 | 36834 ft | 445 kts | 126° |
| 2026-04-30 20:35 | 49.34530 | 9.89106 | 35579 ft | 453 kts | 126° |
| 2026-04-30 20:36 | 49.32468 | 9.92677 | 34943 ft | 452 kts | 126° |
| 2026-04-30 20:36 | 49.30385 | 9.96272 | 34308 ft | 451 kts | 126° |
| 2026-04-30 20:36 | 49.26218 | 10.03424 | 32663 ft | 447 kts | 127° |
| 2026-04-30 20:37 | 49.24145 | 10.06968 | 31412 ft | 446 kts | 127° |
| 2026-04-30 20:37 | 49.22048 | 10.10554 | 29900 ft | 458 kts | 127° |
| 2026-04-30 20:37 | 49.19917 | 10.14199 | 28585 ft | 462 kts | 127° |
| 2026-04-30 20:37 | 49.17772 | 10.17862 | 27727 ft | 460 kts | 127° |
| 2026-04-30 20:38 | 49.15682 | 10.21414 | 27073 ft | 452 kts | 127° |
| 2026-04-30 20:38 | 49.13587 | 10.24966 | 26334 ft | 448 kts | 127° |
| 2026-04-30 20:38 | 49.11485 | 10.28440 | 25632 ft | 442 kts | 128° |
| 2026-04-30 20:39 | 49.07331 | 10.35071 | 24300 ft | 423 kts | 129° |
| 2026-04-30 20:39 | 49.05297 | 10.38285 | 23586 ft | 420 kts | 129° |
| 2026-04-30 20:39 | 49.03283 | 10.41486 | 22940 ft | 416 kts | 129° |
| 2026-04-30 20:40 | 48.99335 | 10.47802 | 21756 ft | 408 kts | 129° |
| 2026-04-30 20:40 | 48.97389 | 10.50912 | 21175 ft | 404 kts | 129° |
| 2026-04-30 20:40 | 48.95465 | 10.53989 | 20637 ft | 418 kts | 129° |
| 2026-04-30 20:41 | 48.91295 | 10.60681 | 19486 ft | 442 kts | 129° |
| 2026-04-30 20:41 | 48.89173 | 10.64049 | 18934 ft | 441 kts | 130° |
| 2026-04-30 20:41 | 48.87054 | 10.67394 | 18352 ft | 438 kts | 130° |
| 2026-04-30 20:41 | 48.84944 | 10.70714 | 17790 ft | 435 kts | 130° |
| 2026-04-30 20:42 | 48.82855 | 10.73994 | 17266 ft | 429 kts | 130° |
| 2026-04-30 20:42 | 48.80820 | 10.77190 | 17005 ft | 414 kts | 130° |
| 2026-04-30 20:42 | 48.76910 | 10.83349 | 15804 ft | 402 kts | 130° |
| 2026-04-30 20:43 | 48.74996 | 10.86357 | 15010 ft | 390 kts | 130° |
| 2026-04-30 20:43 | 48.73151 | 10.89243 | 14490 ft | 373 kts | 130° |
| 2026-04-30 20:43 | 48.71379 | 10.92009 | 13910 ft | 359 kts | 130° |
| 2026-04-30 20:44 | 48.68066 | 10.97180 | 13280 ft | 321 kts | 130° |
| 2026-04-30 20:44 | 48.66558 | 10.99520 | 13096 ft | 301 kts | 130° |
| 2026-04-30 20:44 | 48.63699 | 11.03969 | 12256 ft | 292 kts | 130° |
| 2026-04-30 20:45 | 48.60906 | 11.08310 | 11621 ft | 288 kts | 130° |
| 2026-04-30 20:45 | 48.59517 | 11.10470 | 11301 ft | 286 kts | 130° |
| 2026-04-30 20:45 | 48.58118 | 11.12589 | 10980 ft | 285 kts | 135° |
| 2026-04-30 20:46 | 48.53163 | 11.17651 | 10535 ft | 289 kts | 153° |
| 2026-04-30 20:46 | 48.51219 | 11.18499 | 10399 ft | 292 kts | 163° |
| 2026-04-30 20:47 | 48.47286 | 11.19750 | 10155 ft | 284 kts | 164° |
| 2026-04-30 20:47 | 48.45371 | 11.20340 | 9901 ft | 279 kts | 164° |
| 2026-04-30 20:48 | 48.41608 | 11.21498 | 9272 ft | 272 kts | 164° |
| 2026-04-30 20:48 | 48.39799 | 11.22052 | 8953 ft | 259 kts | 164° |
| 2026-04-30 20:48 | 48.38075 | 11.22576 | 8646 ft | 247 kts | 164° |
| 2026-04-30 20:48 | 48.36404 | 11.23095 | 8337 ft | 243 kts | 161° |
| 2026-04-30 20:49 | 48.34887 | 11.24092 | 8048 ft | 235 kts | 142° |
| 2026-04-30 20:49 | 48.33698 | 11.25719 | 7753 ft | 230 kts | 125° |
| 2026-04-30 20:49 | 48.32938 | 11.27726 | 7454 ft | 220 kts | 108° |
| 2026-04-30 20:50 | 48.32724 | 11.32083 | 6866 ft | 205 kts | 83° |
| 2026-04-30 20:50 | 48.32897 | 11.34177 | 6579 ft | 198 kts | 83° |
| 2026-04-30 20:50 | 48.33051 | 11.36172 | 6276 ft | 186 kts | 86° |
| 2026-04-30 20:50 | 48.33071 | 11.38057 | 5903 ft | 175 kts | 94° |
| 2026-04-30 20:51 | 48.32884 | 11.39812 | 5559 ft | 166 kts | 102° |
| 2026-04-30 20:51 | 48.32420 | 11.43223 | 5014 ft | 166 kts | 98° |
| 2026-04-30 20:51 | 48.32241 | 11.44946 | 5012 ft | 167 kts | 98° |
| 2026-04-30 20:52 | 48.32064 | 11.46649 | 5012 ft | 168 kts | 97° |
| 2026-04-30 20:52 | 48.32041 | 11.48395 | 5011 ft | 167 kts | 88° |
| 2026-04-30 20:52 | 48.32248 | 11.51882 | 4634 ft | 167 kts | 85° |
| 2026-04-30 20:53 | 48.32379 | 11.53609 | 4413 ft | 166 kts | 85° |
| 2026-04-30 20:53 | 48.32512 | 11.55319 | 4189 ft | 164 kts | 85° |
| 2026-04-30 20:53 | 48.32644 | 11.56988 | 3981 ft | 156 kts | 84° |
| 2026-04-30 20:54 | 48.32879 | 11.59966 | 3585 ft | 137 kts | 84° |
| 2026-04-30 20:54 | 48.32991 | 11.61388 | 3397 ft | 137 kts | 84° |
| 2026-04-30 20:54 | 48.33103 | 11.62800 | 3211 ft | 135 kts | 85° |
| 2026-04-30 20:55 | 48.33321 | 11.65574 | 2849 ft | 134 kts | 86° |
| 2026-04-30 20:55 | 48.33430 | 11.66970 | 2648 ft | 135 kts | 85° |
| 2026-04-30 20:55 | 48.33541 | 11.68378 | 2444 ft | 136 kts | 84° |
| 2026-04-30 20:56 | 48.33761 | 11.71203 | 2031 ft | 137 kts | 84° |
| 2026-04-30 20:56 | 48.33872 | 11.72622 | 1840 ft | 137 kts | 83° |
| 2026-04-30 20:56 | 48.34095 | 11.75481 | 1503 ft | 137 kts | 83° |
| 2026-04-30 20:57 | 48.34194 | 11.76742 | 1476 ft | 105 kts | 83° |
| 2026-04-30 20:57 | 48.34259 | 11.77589 | 1481 ft | 66 kts | 83° |
| 2026-04-30 20:57 | 48.34297 | 11.78094 | 1481 ft | 25 kts | 81° |
| 2026-04-30 20:58 | 48.34441 | 11.78483 | 1478 ft | 19 kts | 53° |
| 2026-04-30 20:58 | 48.34517 | 11.78638 | 1471 ft | 19 kts | 53° |
| 2026-04-30 20:58 | 48.34601 | 11.78802 | 1475 ft | 20 kts | 53° |
| 2026-04-30 20:58 | 48.34638 | 11.79008 | 1476 ft | 21 kts | 82° |
| 2026-04-30 20:59 | 48.34675 | 11.79471 | 1485 ft | 18 kts | 84° |
| 2026-04-30 20:59 | 48.34686 | 11.79623 | 1485 ft | 11 kts | 83° |
| 2026-04-30 21:00 | 48.34793 | 11.79708 | 1472 ft | 11 kts | 352° |
| 2026-04-30 21:00 | 48.34959 | 11.79676 | 1477 ft | 14 kts | 353° |
| 2026-04-30 21:01 | 48.35132 | 11.79646 | 1485 ft | 8 kts | 353° |
| 2026-04-30 21:01 | 48.35179 | 11.79638 | 1482 ft | 6 kts | 353° |
| 2026-04-30 21:01 | 48.35235 | 11.79656 | 1483 ft | 3 kts | 62° |
| 2026-04-30 21:02 | 48.35239 | 11.79692 | 1485 ft | 4 kts | 84° |
| 2026-04-30 21:02 | 48.35243 | 11.79737 | 1481 ft | 5 kts | 83° |
| 2026-04-30 21:02 | 48.35245 | 11.79773 | 1478 ft | 1 kts | 83° |
| 2026-04-30 21:02 | 48.35245 | 11.79774 | 1478 ft | 0 kts | 83° |